sensor_id;sensor_type;location;lat;lon;timestamp;P1;durP1;ratioP1;P2;durP2;ratioP2
8871;SDS011;4472;52.092;9.820;2023-04-25T00:01:24;13.07;;;4.97;;
8871;SDS011;4472;52.092;9.820;2023-04-25T00:04:12;20.43;;;5.67;;
8871;SDS011;4472;52.092;9.820;2023-04-25T00:06:59;13.67;;;5.70;;
8871;SDS011;4472;52.092;9.820;2023-04-25T00:09:49;11.90;;;5.10;;
8871;SDS011;4472;52.092;9.820;2023-04-25T00:12:36;12.83;;;5.27;;
8871;SDS011;4472;52.092;9.820;2023-04-25T00:15:24;13.17;;;5.00;;
8871;SDS011;4472;52.092;9.820;2023-04-25T00:18:11;9.73;;;4.90;;
8871;SDS011;4472;52.092;9.820;2023-04-25T00:20:58;10.70;;;5.60;;
8871;SDS011;4472;52.092;9.820;2023-04-25T00:23:45;10.47;;;4.73;;
8871;SDS011;4472;52.092;9.820;2023-04-25T00:26:34;14.07;;;5.90;;
8871;SDS011;4472;52.092;9.820;2023-04-25T00:29:22;15.00;;;6.37;;
8871;SDS011;4472;52.092;9.820;2023-04-25T00:32:09;17.70;;;6.53;;
8871;SDS011;4472;52.092;9.820;2023-04-25T00:34:56;14.03;;;6.40;;
8871;SDS011;4472;52.092;9.820;2023-04-25T00:37:44;12.27;;;6.10;;
8871;SDS011;4472;52.092;9.820;2023-04-25T00:40:31;17.87;;;7.00;;
8871;SDS011;4472;52.092;9.820;2023-04-25T00:43:19;16.80;;;6.00;;
8871;SDS011;4472;52.092;9.820;2023-04-25T00:46:07;12.50;;;6.70;;
8871;SDS011;4472;52.092;9.820;2023-04-25T00:48:54;14.80;;;6.53;;
8871;SDS011;4472;52.092;9.820;2023-04-25T00:51:41;13.80;;;6.47;;
8871;SDS011;4472;52.092;9.820;2023-04-25T00:54:29;14.47;;;6.47;;
8871;SDS011;4472;52.092;9.820;2023-04-25T00:57:17;17.13;;;6.83;;
8871;SDS011;4472;52.092;9.820;2023-04-25T01:00:06;15.67;;;6.23;;
8871;SDS011;4472;52.092;9.820;2023-04-25T01:02:56;12.83;;;6.03;;
8871;SDS011;4472;52.092;9.820;2023-04-25T01:05:43;17.43;;;7.20;;
8871;SDS011;4472;52.092;9.820;2023-04-25T01:08:30;20.87;;;8.10;;
8871;SDS011;4472;52.092;9.820;2023-04-25T01:11:18;24.33;;;8.40;;
8871;SDS011;4472;52.092;9.820;2023-04-25T01:14:05;23.70;;;8.53;;
8871;SDS011;4472;52.092;9.820;2023-04-25T01:16:53;24.97;;;7.07;;
8871;SDS011;4472;52.092;9.820;2023-04-25T01:19:41;17.97;;;8.33;;
8871;SDS011;4472;52.092;9.820;2023-04-25T01:22:29;15.30;;;7.77;;
8871;SDS011;4472;52.092;9.820;2023-04-25T01:25:16;15.07;;;7.63;;
8871;SDS011;4472;52.092;9.820;2023-04-25T01:28:04;19.63;;;8.40;;
8871;SDS011;4472;52.092;9.820;2023-04-25T01:30:51;17.77;;;7.90;;
8871;SDS011;4472;52.092;9.820;2023-04-25T01:33:39;16.83;;;7.57;;
8871;SDS011;4472;52.092;9.820;2023-04-25T01:36:26;15.83;;;6.77;;
8871;SDS011;4472;52.092;9.820;2023-04-25T01:39:15;15.43;;;7.67;;
8871;SDS011;4472;52.092;9.820;2023-04-25T01:42:03;20.50;;;8.37;;
8871;SDS011;4472;52.092;9.820;2023-04-25T01:44:50;18.20;;;7.43;;
8871;SDS011;4472;52.092;9.820;2023-04-25T01:47:37;19.87;;;8.27;;
8871;SDS011;4472;52.092;9.820;2023-04-25T01:50:26;16.40;;;8.07;;
8871;SDS011;4472;52.092;9.820;2023-04-25T01:53:14;15.83;;;8.33;;
8871;SDS011;4472;52.092;9.820;2023-04-25T01:56:04;14.27;;;7.80;;
8871;SDS011;4472;52.092;9.820;2023-04-25T01:58:52;14.83;;;7.97;;
8871;SDS011;4472;52.092;9.820;2023-04-25T02:01:40;13.47;;;7.90;;
8871;SDS011;4472;52.092;9.820;2023-04-25T02:04:27;19.00;;;8.10;;
8871;SDS011;4472;52.092;9.820;2023-04-25T02:07:14;16.37;;;7.93;;
8871;SDS011;4472;52.092;9.820;2023-04-25T02:10:01;18.60;;;8.20;;
8871;SDS011;4472;52.092;9.820;2023-04-25T02:12:49;17.83;;;8.40;;
8871;SDS011;4472;52.092;9.820;2023-04-25T02:15:37;16.17;;;7.87;;
8871;SDS011;4472;52.092;9.820;2023-04-25T02:18:24;19.33;;;8.00;;
8871;SDS011;4472;52.092;9.820;2023-04-25T02:21:11;16.33;;;7.90;;
8871;SDS011;4472;52.092;9.820;2023-04-25T02:23:58;12.50;;;7.77;;
8871;SDS011;4472;52.092;9.820;2023-04-25T02:26:45;18.43;;;7.83;;
8871;SDS011;4472;52.092;9.820;2023-04-25T02:29:36;15.53;;;7.77;;
8871;SDS011;4472;52.092;9.820;2023-04-25T02:32:23;14.63;;;7.67;;
8871;SDS011;4472;52.092;9.820;2023-04-25T02:35:10;12.77;;;7.27;;
8871;SDS011;4472;52.092;9.820;2023-04-25T02:37:57;14.07;;;8.40;;
8871;SDS011;4472;52.092;9.820;2023-04-25T02:40:44;13.00;;;8.37;;
8871;SDS011;4472;52.092;9.820;2023-04-25T02:43:31;14.73;;;8.67;;
8871;SDS011;4472;52.092;9.820;2023-04-25T02:46:20;18.37;;;9.57;;
8871;SDS011;4472;52.092;9.820;2023-04-25T02:49:07;16.90;;;9.33;;
8871;SDS011;4472;52.092;9.820;2023-04-25T02:51:54;16.07;;;9.13;;
8871;SDS011;4472;52.092;9.820;2023-04-25T02:54:42;20.00;;;8.93;;
8871;SDS011;4472;52.092;9.820;2023-04-25T02:57:29;16.50;;;7.90;;
8871;SDS011;4472;52.092;9.820;2023-04-25T03:00:16;14.30;;;8.33;;
8871;SDS011;4472;52.092;9.820;2023-04-25T03:03:05;17.17;;;8.37;;
8871;SDS011;4472;52.092;9.820;2023-04-25T03:05:52;16.07;;;8.97;;
8871;SDS011;4472;52.092;9.820;2023-04-25T03:08:39;17.50;;;8.70;;
8871;SDS011;4472;52.092;9.820;2023-04-25T03:11:26;11.60;;;7.80;;
8871;SDS011;4472;52.092;9.820;2023-04-25T03:14:13;12.40;;;7.33;;
8871;SDS011;4472;52.092;9.820;2023-04-25T03:17:00;13.10;;;7.77;;
8871;SDS011;4472;52.092;9.820;2023-04-25T03:19:49;15.03;;;7.43;;
8871;SDS011;4472;52.092;9.820;2023-04-25T03:22:36;11.80;;;7.50;;
8871;SDS011;4472;52.092;9.820;2023-04-25T03:25:23;15.17;;;6.97;;
8871;SDS011;4472;52.092;9.820;2023-04-25T03:28:11;17.37;;;6.87;;
8871;SDS011;4472;52.092;9.820;2023-04-25T03:30:58;14.43;;;6.97;;
8871;SDS011;4472;52.092;9.820;2023-04-25T03:33:45;15.83;;;6.27;;
8871;SDS011;4472;52.092;9.820;2023-04-25T03:36:33;12.97;;;5.90;;
8871;SDS011;4472;52.092;9.820;2023-04-25T03:39:20;15.73;;;5.50;;
8871;SDS011;4472;52.092;9.820;2023-04-25T03:42:08;20.33;;;6.90;;
8871;SDS011;4472;52.092;9.820;2023-04-25T03:44:55;19.60;;;6.70;;
8871;SDS011;4472;52.092;9.820;2023-04-25T03:47:42;16.63;;;6.60;;
8871;SDS011;4472;52.092;9.820;2023-04-25T03:50:29;13.43;;;5.07;;
8871;SDS011;4472;52.092;9.820;2023-04-25T03:53:17;17.40;;;5.60;;
8871;SDS011;4472;52.092;9.820;2023-04-25T03:56:05;16.27;;;5.20;;
8871;SDS011;4472;52.092;9.820;2023-04-25T03:58:52;20.50;;;5.73;;
8871;SDS011;4472;52.092;9.820;2023-04-25T04:01:39;19.37;;;5.60;;
8871;SDS011;4472;52.092;9.820;2023-04-25T04:04:27;12.93;;;5.27;;
8871;SDS011;4472;52.092;9.820;2023-04-25T04:07:14;19.33;;;5.50;;
8871;SDS011;4472;52.092;9.820;2023-04-25T04:10:02;15.27;;;5.23;;
8871;SDS011;4472;52.092;9.820;2023-04-25T04:12:50;11.10;;;4.97;;
8871;SDS011;4472;52.092;9.820;2023-04-25T04:15:40;14.23;;;5.93;;
8871;SDS011;4472;52.092;9.820;2023-04-25T04:18:28;15.77;;;5.90;;
8871;SDS011;4472;52.092;9.820;2023-04-25T04:21:15;15.60;;;5.70;;
8871;SDS011;4472;52.092;9.820;2023-04-25T04:24:02;18.30;;;5.80;;
8871;SDS011;4472;52.092;9.820;2023-04-25T04:26:51;28.63;;;6.70;;
8871;SDS011;4472;52.092;9.820;2023-04-25T04:29:38;16.17;;;5.77;;
8871;SDS011;4472;52.092;9.820;2023-04-25T04:32:25;16.80;;;6.77;;
8871;SDS011;4472;52.092;9.820;2023-04-25T04:35:12;15.57;;;6.03;;
8871;SDS011;4472;52.092;9.820;2023-04-25T04:38:00;20.20;;;7.03;;
8871;SDS011;4472;52.092;9.820;2023-04-25T04:40:47;19.80;;;6.30;;
8871;SDS011;4472;52.092;9.820;2023-04-25T04:43:35;23.10;;;6.43;;
8871;SDS011;4472;52.092;9.820;2023-04-25T04:46:24;18.70;;;6.67;;
8871;SDS011;4472;52.092;9.820;2023-04-25T04:49:13;26.73;;;6.50;;
8871;SDS011;4472;52.092;9.820;2023-04-25T04:52:00;19.00;;;6.33;;
8871;SDS011;4472;52.092;9.820;2023-04-25T04:54:47;25.13;;;6.20;;
8871;SDS011;4472;52.092;9.820;2023-04-25T04:57:34;21.93;;;6.47;;
8871;SDS011;4472;52.092;9.820;2023-04-25T05:00:25;19.43;;;5.57;;
8871;SDS011;4472;52.092;9.820;2023-04-25T05:03:12;31.27;;;7.43;;
8871;SDS011;4472;52.092;9.820;2023-04-25T05:05:59;20.23;;;6.27;;
8871;SDS011;4472;52.092;9.820;2023-04-25T05:08:46;17.23;;;5.30;;
8871;SDS011;4472;52.092;9.820;2023-04-25T05:11:34;24.40;;;6.00;;
8871;SDS011;4472;52.092;9.820;2023-04-25T05:14:21;26.30;;;6.80;;
8871;SDS011;4472;52.092;9.820;2023-04-25T05:17:10;22.97;;;5.60;;
8871;SDS011;4472;52.092;9.820;2023-04-25T05:19:57;20.10;;;5.30;;
8871;SDS011;4472;52.092;9.820;2023-04-25T05:22:44;20.23;;;5.63;;
8871;SDS011;4472;52.092;9.820;2023-04-25T05:25:31;29.40;;;6.53;;
8871;SDS011;4472;52.092;9.820;2023-04-25T05:28:18;26.50;;;6.27;;
8871;SDS011;4472;52.092;9.820;2023-04-25T05:31:06;20.63;;;5.17;;
8871;SDS011;4472;52.092;9.820;2023-04-25T05:33:55;25.40;;;6.17;;
8871;SDS011;4472;52.092;9.820;2023-04-25T05:36:42;28.37;;;6.20;;
8871;SDS011;4472;52.092;9.820;2023-04-25T05:39:29;18.17;;;5.73;;
8871;SDS011;4472;52.092;9.820;2023-04-25T05:42:16;24.90;;;5.83;;
8871;SDS011;4472;52.092;9.820;2023-04-25T05:45:03;19.13;;;5.40;;
8871;SDS011;4472;52.092;9.820;2023-04-25T05:47:51;29.17;;;5.87;;
8871;SDS011;4472;52.092;9.820;2023-04-25T05:53:42;22.20;;;5.97;;
8871;SDS011;4472;52.092;9.820;2023-04-25T05:56:29;16.70;;;4.83;;
8871;SDS011;4472;52.092;9.820;2023-04-25T05:59:16;21.80;;;5.17;;
8871;SDS011;4472;52.092;9.820;2023-04-25T06:02:03;19.47;;;4.63;;
8871;SDS011;4472;52.092;9.820;2023-04-25T06:04:50;18.80;;;5.20;;
8871;SDS011;4472;52.092;9.820;2023-04-25T06:07:39;15.47;;;4.60;;
8871;SDS011;4472;52.092;9.820;2023-04-25T06:10:26;19.50;;;4.57;;
8871;SDS011;4472;52.092;9.820;2023-04-25T06:13:13;18.40;;;4.47;;
8871;SDS011;4472;52.092;9.820;2023-04-25T06:16:00;19.67;;;4.63;;
8871;SDS011;4472;52.092;9.820;2023-04-25T06:18:47;19.83;;;5.07;;
8871;SDS011;4472;52.092;9.820;2023-04-25T06:21:34;17.33;;;4.60;;
8871;SDS011;4472;52.092;9.820;2023-04-25T06:24:23;17.77;;;4.47;;
8871;SDS011;4472;52.092;9.820;2023-04-25T06:27:10;21.57;;;4.80;;
8871;SDS011;4472;52.092;9.820;2023-04-25T06:29:57;21.70;;;4.53;;
8871;SDS011;4472;52.092;9.820;2023-04-25T06:32:44;22.20;;;6.10;;
8871;SDS011;4472;52.092;9.820;2023-04-25T06:35:32;41.97;;;13.37;;
8871;SDS011;4472;52.092;9.820;2023-04-25T06:38:19;19.13;;;4.50;;
8871;SDS011;4472;52.092;9.820;2023-04-25T06:41:07;13.97;;;3.90;;
8871;SDS011;4472;52.092;9.820;2023-04-25T06:43:54;18.03;;;4.90;;
8871;SDS011;4472;52.092;9.820;2023-04-25T06:46:41;19.23;;;4.73;;
8871;SDS011;4472;52.092;9.820;2023-04-25T06:49:29;19.23;;;4.37;;
8871;SDS011;4472;52.092;9.820;2023-04-25T06:52:16;17.67;;;4.73;;
8871;SDS011;4472;52.092;9.820;2023-04-25T06:55:04;23.13;;;5.37;;
8871;SDS011;4472;52.092;9.820;2023-04-25T06:57:53;13.67;;;4.73;;
8871;SDS011;4472;52.092;9.820;2023-04-25T07:00:41;14.33;;;4.70;;
8871;SDS011;4472;52.092;9.820;2023-04-25T07:03:28;19.47;;;5.00;;
8871;SDS011;4472;52.092;9.820;2023-04-25T07:06:15;23.77;;;5.13;;
8871;SDS011;4472;52.092;9.820;2023-04-25T07:09:02;17.07;;;4.00;;
8871;SDS011;4472;52.092;9.820;2023-04-25T07:11:50;18.27;;;4.20;;
8871;SDS011;4472;52.092;9.820;2023-04-25T07:14:38;19.70;;;5.07;;
8871;SDS011;4472;52.092;9.820;2023-04-25T07:17:26;10.57;;;3.73;;
8871;SDS011;4472;52.092;9.820;2023-04-25T07:20:13;9.87;;;3.30;;
8871;SDS011;4472;52.092;9.820;2023-04-25T07:23:01;20.87;;;3.87;;
8871;SDS011;4472;52.092;9.820;2023-04-25T07:25:48;17.07;;;4.20;;
8871;SDS011;4472;52.092;9.820;2023-04-25T07:28:35;16.20;;;3.90;;
8871;SDS011;4472;52.092;9.820;2023-04-25T07:31:24;15.23;;;3.90;;
8871;SDS011;4472;52.092;9.820;2023-04-25T07:34:11;12.27;;;3.77;;
8871;SDS011;4472;52.092;9.820;2023-04-25T07:36:58;17.67;;;4.47;;
8871;SDS011;4472;52.092;9.820;2023-04-25T07:39:45;15.53;;;3.57;;
8871;SDS011;4472;52.092;9.820;2023-04-25T07:42:32;12.47;;;3.97;;
8871;SDS011;4472;52.092;9.820;2023-04-25T07:45:20;11.40;;;3.50;;
8871;SDS011;4472;52.092;9.820;2023-04-25T07:48:08;11.87;;;3.73;;
8871;SDS011;4472;52.092;9.820;2023-04-25T07:50:55;13.73;;;4.03;;
8871;SDS011;4472;52.092;9.820;2023-04-25T07:53:43;18.97;;;3.93;;
8871;SDS011;4472;52.092;9.820;2023-04-25T07:56:30;12.87;;;3.60;;
8871;SDS011;4472;52.092;9.820;2023-04-25T07:59:17;12.53;;;3.80;;
8871;SDS011;4472;52.092;9.820;2023-04-25T08:02:04;12.27;;;3.57;;
8871;SDS011;4472;52.092;9.820;2023-04-25T08:04:55;17.30;;;3.73;;
8871;SDS011;4472;52.092;9.820;2023-04-25T08:07:42;14.63;;;4.10;;
8871;SDS011;4472;52.092;9.820;2023-04-25T08:10:29;15.97;;;4.17;;
8871;SDS011;4472;52.092;9.820;2023-04-25T08:13:16;9.97;;;3.67;;
8871;SDS011;4472;52.092;9.820;2023-04-25T08:16:03;11.73;;;3.00;;
8871;SDS011;4472;52.092;9.820;2023-04-25T08:18:51;15.10;;;3.40;;
8871;SDS011;4472;52.092;9.820;2023-04-25T08:21:39;11.13;;;3.30;;
8871;SDS011;4472;52.092;9.820;2023-04-25T08:24:27;9.50;;;3.07;;
8871;SDS011;4472;52.092;9.820;2023-04-25T08:27:14;16.60;;;2.93;;
8871;SDS011;4472;52.092;9.820;2023-04-25T08:30:01;12.73;;;3.40;;
8871;SDS011;4472;52.092;9.820;2023-04-25T08:32:48;9.63;;;2.63;;
8871;SDS011;4472;52.092;9.820;2023-04-25T08:35:35;11.20;;;2.73;;
8871;SDS011;4472;52.092;9.820;2023-04-25T08:38:24;12.67;;;2.97;;
8871;SDS011;4472;52.092;9.820;2023-04-25T08:41:11;9.77;;;2.80;;
8871;SDS011;4472;52.092;9.820;2023-04-25T08:44:00;10.20;;;3.00;;
8871;SDS011;4472;52.092;9.820;2023-04-25T08:46:49;13.63;;;3.13;;
8871;SDS011;4472;52.092;9.820;2023-04-25T08:49:38;10.47;;;3.10;;
8871;SDS011;4472;52.092;9.820;2023-04-25T08:52:32;6.23;;;2.23;;
8871;SDS011;4472;52.092;9.820;2023-04-25T08:55:24;10.83;;;2.87;;
8871;SDS011;4472;52.092;9.820;2023-04-25T08:58:12;7.97;;;2.40;;
8871;SDS011;4472;52.092;9.820;2023-04-25T09:01:00;6.23;;;2.50;;
8871;SDS011;4472;52.092;9.820;2023-04-25T09:03:47;6.10;;;2.30;;
8871;SDS011;4472;52.092;9.820;2023-04-25T09:06:35;9.13;;;2.40;;
8871;SDS011;4472;52.092;9.820;2023-04-25T09:09:23;7.50;;;2.50;;
8871;SDS011;4472;52.092;9.820;2023-04-25T09:12:12;8.53;;;2.93;;
8871;SDS011;4472;52.092;9.820;2023-04-25T09:15:03;12.20;;;2.93;;
8871;SDS011;4472;52.092;9.820;2023-04-25T09:17:54;8.57;;;2.70;;
8871;SDS011;4472;52.092;9.820;2023-04-25T09:20:42;8.27;;;3.17;;
8871;SDS011;4472;52.092;9.820;2023-04-25T09:23:29;9.63;;;2.60;;
8871;SDS011;4472;52.092;9.820;2023-04-25T09:26:19;5.93;;;2.63;;
8871;SDS011;4472;52.092;9.820;2023-04-25T09:29:08;8.27;;;2.70;;
8871;SDS011;4472;52.092;9.820;2023-04-25T09:32:06;9.53;;;3.03;;
8871;SDS011;4472;52.092;9.820;2023-04-25T09:35:02;11.43;;;2.83;;
8871;SDS011;4472;52.092;9.820;2023-04-25T09:37:49;7.47;;;2.70;;
8871;SDS011;4472;52.092;9.820;2023-04-25T09:40:40;9.33;;;2.60;;
8871;SDS011;4472;52.092;9.820;2023-04-25T09:43:28;9.23;;;2.90;;
8871;SDS011;4472;52.092;9.820;2023-04-25T09:46:16;10.23;;;2.97;;
8871;SDS011;4472;52.092;9.820;2023-04-25T09:49:06;9.70;;;2.77;;
8871;SDS011;4472;52.092;9.820;2023-04-25T09:51:54;14.57;;;2.87;;
8871;SDS011;4472;52.092;9.820;2023-04-25T09:54:42;9.83;;;3.30;;
8871;SDS011;4472;52.092;9.820;2023-04-25T09:57:30;7.23;;;2.63;;
8871;SDS011;4472;52.092;9.820;2023-04-25T10:00:18;9.57;;;2.73;;
8871;SDS011;4472;52.092;9.820;2023-04-25T10:03:08;9.27;;;3.00;;
8871;SDS011;4472;52.092;9.820;2023-04-25T10:05:57;12.03;;;3.03;;
8871;SDS011;4472;52.092;9.820;2023-04-25T10:08:46;8.67;;;3.10;;
8871;SDS011;4472;52.092;9.820;2023-04-25T10:11:37;15.03;;;2.97;;
8871;SDS011;4472;52.092;9.820;2023-04-25T10:14:25;9.73;;;3.70;;
8871;SDS011;4472;52.092;9.820;2023-04-25T10:17:17;12.63;;;3.30;;
8871;SDS011;4472;52.092;9.820;2023-04-25T10:20:09;7.53;;;3.00;;
8871;SDS011;4472;52.092;9.820;2023-04-25T10:22:58;10.23;;;3.00;;
8871;SDS011;4472;52.092;9.820;2023-04-25T10:25:53;12.17;;;3.57;;
8871;SDS011;4472;52.092;9.820;2023-04-25T10:28:56;10.67;;;2.80;;
8871;SDS011;4472;52.092;9.820;2023-04-25T10:31:45;15.93;;;3.30;;
8871;SDS011;4472;52.092;9.820;2023-04-25T10:34:39;7.90;;;3.20;;
8871;SDS011;4472;52.092;9.820;2023-04-25T10:37:28;12.73;;;2.73;;
8871;SDS011;4472;52.092;9.820;2023-04-25T10:40:17;13.13;;;3.40;;
8871;SDS011;4472;52.092;9.820;2023-04-25T10:46:30;8.80;;;2.87;;
8871;SDS011;4472;52.092;9.820;2023-04-25T10:49:31;6.47;;;2.20;;
8871;SDS011;4472;52.092;9.820;2023-04-25T10:52:26;8.10;;;2.30;;
8871;SDS011;4472;52.092;9.820;2023-04-25T10:55:16;5.37;;;2.17;;
8871;SDS011;4472;52.092;9.820;2023-04-25T10:58:03;6.10;;;2.30;;
8871;SDS011;4472;52.092;9.820;2023-04-25T11:00:50;5.60;;;2.17;;
8871;SDS011;4472;52.092;9.820;2023-04-25T11:03:38;10.20;;;2.77;;
8871;SDS011;4472;52.092;9.820;2023-04-25T11:06:29;7.33;;;2.30;;
8871;SDS011;4472;52.092;9.820;2023-04-25T11:09:24;7.83;;;2.50;;
8871;SDS011;4472;52.092;9.820;2023-04-25T11:12:13;11.20;;;2.93;;
8871;SDS011;4472;52.092;9.820;2023-04-25T11:15:02;7.70;;;2.60;;
8871;SDS011;4472;52.092;9.820;2023-04-25T11:17:51;5.60;;;2.60;;
8871;SDS011;4472;52.092;9.820;2023-04-25T11:20:38;7.43;;;2.17;;
8871;SDS011;4472;52.092;9.820;2023-04-25T11:23:29;6.43;;;2.23;;
8871;SDS011;4472;52.092;9.820;2023-04-25T11:26:20;4.87;;;2.00;;
8871;SDS011;4472;52.092;9.820;2023-04-25T11:29:07;8.57;;;2.30;;
8871;SDS011;4472;52.092;9.820;2023-04-25T11:31:54;9.17;;;2.33;;
8871;SDS011;4472;52.092;9.820;2023-04-25T11:34:43;7.10;;;2.20;;
8871;SDS011;4472;52.092;9.820;2023-04-25T11:37:31;6.90;;;2.03;;
8871;SDS011;4472;52.092;9.820;2023-04-25T11:40:19;8.70;;;2.47;;
8871;SDS011;4472;52.092;9.820;2023-04-25T11:43:08;6.60;;;2.03;;
8871;SDS011;4472;52.092;9.820;2023-04-25T11:45:56;5.17;;;2.10;;
8871;SDS011;4472;52.092;9.820;2023-04-25T11:48:43;5.97;;;2.00;;
8871;SDS011;4472;52.092;9.820;2023-04-25T11:51:37;3.70;;;2.00;;
8871;SDS011;4472;52.092;9.820;2023-04-25T11:54:25;7.43;;;2.20;;
8871;SDS011;4472;52.092;9.820;2023-04-25T11:57:12;5.73;;;2.13;;
8871;SDS011;4472;52.092;9.820;2023-04-25T12:00:11;6.10;;;2.07;;
8871;SDS011;4472;52.092;9.820;2023-04-25T12:03:00;4.93;;;1.97;;
8871;SDS011;4472;52.092;9.820;2023-04-25T12:05:48;4.73;;;1.73;;
8871;SDS011;4472;52.092;9.820;2023-04-25T12:08:36;7.90;;;1.80;;
8871;SDS011;4472;52.092;9.820;2023-04-25T12:11:23;6.50;;;2.23;;
8871;SDS011;4472;52.092;9.820;2023-04-25T12:14:11;6.80;;;2.10;;
8871;SDS011;4472;52.092;9.820;2023-04-25T12:17:00;10.57;;;2.10;;
8871;SDS011;4472;52.092;9.820;2023-04-25T12:19:49;6.77;;;1.90;;
8871;SDS011;4472;52.092;9.820;2023-04-25T12:22:36;6.17;;;2.07;;
8871;SDS011;4472;52.092;9.820;2023-04-25T12:25:36;9.77;;;2.20;;
8871;SDS011;4472;52.092;9.820;2023-04-25T12:28:24;4.43;;;1.90;;
8871;SDS011;4472;52.092;9.820;2023-04-25T12:31:12;4.90;;;2.10;;
8871;SDS011;4472;52.092;9.820;2023-04-25T12:34:02;4.50;;;1.90;;
8871;SDS011;4472;52.092;9.820;2023-04-25T12:36:51;10.33;;;2.80;;
8871;SDS011;4472;52.092;9.820;2023-04-25T12:39:39;7.93;;;3.23;;
8871;SDS011;4472;52.092;9.820;2023-04-25T12:42:26;6.90;;;1.90;;
8871;SDS011;4472;52.092;9.820;2023-04-25T12:45:13;4.00;;;2.23;;
8871;SDS011;4472;52.092;9.820;2023-04-25T12:48:01;3.67;;;1.80;;
8871;SDS011;4472;52.092;9.820;2023-04-25T12:50:50;6.53;;;1.93;;
8871;SDS011;4472;52.092;9.820;2023-04-25T12:53:37;4.97;;;1.50;;
8871;SDS011;4472;52.092;9.820;2023-04-25T12:56:26;5.73;;;2.37;;
8871;SDS011;4472;52.092;9.820;2023-04-25T12:59:13;3.90;;;1.67;;
8871;SDS011;4472;52.092;9.820;2023-04-25T13:02:00;2.27;;;1.50;;
8871;SDS011;4472;52.092;9.820;2023-04-25T13:04:48;2.93;;;1.43;;
8871;SDS011;4472;52.092;9.820;2023-04-25T13:07:36;4.00;;;1.40;;
8871;SDS011;4472;52.092;9.820;2023-04-25T13:10:23;5.80;;;1.63;;
8871;SDS011;4472;52.092;9.820;2023-04-25T13:13:11;5.23;;;1.67;;
8871;SDS011;4472;52.092;9.820;2023-04-25T13:15:58;2.13;;;1.80;;
8871;SDS011;4472;52.092;9.820;2023-04-25T13:18:45;4.53;;;1.90;;
8871;SDS011;4472;52.092;9.820;2023-04-25T13:21:32;3.80;;;1.87;;
8871;SDS011;4472;52.092;9.820;2023-04-25T13:24:22;5.60;;;2.00;;
8871;SDS011;4472;52.092;9.820;2023-04-25T13:27:09;3.40;;;2.00;;
8871;SDS011;4472;52.092;9.820;2023-04-25T13:29:56;6.57;;;1.97;;
8871;SDS011;4472;52.092;9.820;2023-04-25T13:32:43;4.97;;;1.90;;
8871;SDS011;4472;52.092;9.820;2023-04-25T13:35:30;6.07;;;1.80;;
8871;SDS011;4472;52.092;9.820;2023-04-25T13:38:18;1.53;;;1.43;;
8871;SDS011;4472;52.092;9.820;2023-04-25T13:41:06;5.23;;;1.57;;
8871;SDS011;4472;52.092;9.820;2023-04-25T13:43:55;3.93;;;1.47;;
8871;SDS011;4472;52.092;9.820;2023-04-25T13:46:42;1.70;;;1.50;;
8871;SDS011;4472;52.092;9.820;2023-04-25T13:49:31;5.63;;;1.80;;
8871;SDS011;4472;52.092;9.820;2023-04-25T13:52:18;5.93;;;1.90;;
8871;SDS011;4472;52.092;9.820;2023-04-25T13:55:06;4.53;;;1.60;;
8871;SDS011;4472;52.092;9.820;2023-04-25T13:57:55;5.93;;;1.80;;
8871;SDS011;4472;52.092;9.820;2023-04-25T14:00:42;3.83;;;1.90;;
8871;SDS011;4472;52.092;9.820;2023-04-25T14:03:31;5.93;;;1.93;;
8871;SDS011;4472;52.092;9.820;2023-04-25T14:06:19;4.33;;;2.00;;
8871;SDS011;4472;52.092;9.820;2023-04-25T14:09:09;3.77;;;1.70;;
8871;SDS011;4472;52.092;9.820;2023-04-25T14:11:58;5.97;;;2.17;;
8871;SDS011;4472;52.092;9.820;2023-04-25T14:14:47;4.33;;;1.70;;
8871;SDS011;4472;52.092;9.820;2023-04-25T14:17:34;4.90;;;1.80;;
8871;SDS011;4472;52.092;9.820;2023-04-25T14:20:21;5.20;;;1.80;;
8871;SDS011;4472;52.092;9.820;2023-04-25T14:23:09;4.10;;;1.73;;
8871;SDS011;4472;52.092;9.820;2023-04-25T14:25:56;5.83;;;1.83;;
8871;SDS011;4472;52.092;9.820;2023-04-25T14:28:43;10.03;;;1.80;;
8871;SDS011;4472;52.092;9.820;2023-04-25T14:31:32;3.20;;;1.63;;
8871;SDS011;4472;52.092;9.820;2023-04-25T14:34:19;4.27;;;2.10;;
8871;SDS011;4472;52.092;9.820;2023-04-25T14:37:06;5.97;;;2.40;;
8871;SDS011;4472;52.092;9.820;2023-04-25T14:39:53;5.20;;;1.90;;
8871;SDS011;4472;52.092;9.820;2023-04-25T14:42:40;5.17;;;1.80;;
8871;SDS011;4472;52.092;9.820;2023-04-25T14:45:27;3.83;;;1.60;;
8871;SDS011;4472;52.092;9.820;2023-04-25T14:48:16;3.60;;;1.47;;
8871;SDS011;4472;52.092;9.820;2023-04-25T14:51:04;2.97;;;1.83;;
8871;SDS011;4472;52.092;9.820;2023-04-25T14:53:52;2.63;;;2.10;;
8871;SDS011;4472;52.092;9.820;2023-04-25T14:56:39;4.60;;;2.10;;
8871;SDS011;4472;52.092;9.820;2023-04-25T14:59:26;4.17;;;1.87;;
8871;SDS011;4472;52.092;9.820;2023-04-25T15:02:13;3.60;;;1.80;;
8871;SDS011;4472;52.092;9.820;2023-04-25T15:05:02;4.83;;;2.27;;
8871;SDS011;4472;52.092;9.820;2023-04-25T15:07:50;8.80;;;2.17;;
8871;SDS011;4472;52.092;9.820;2023-04-25T15:10:37;2.03;;;1.77;;
8871;SDS011;4472;52.092;9.820;2023-04-25T15:13:24;6.07;;;2.80;;
8871;SDS011;4472;52.092;9.820;2023-04-25T15:16:12;5.93;;;2.57;;
8871;SDS011;4472;52.092;9.820;2023-04-25T15:18:59;4.70;;;2.47;;
8871;SDS011;4472;52.092;9.820;2023-04-25T15:21:50;4.07;;;1.70;;
8871;SDS011;4472;52.092;9.820;2023-04-25T15:24:37;5.47;;;2.50;;
8871;SDS011;4472;52.092;9.820;2023-04-25T15:27:24;3.40;;;1.90;;
8871;SDS011;4472;52.092;9.820;2023-04-25T15:30:12;6.50;;;2.60;;
8871;SDS011;4472;52.092;9.820;2023-04-25T15:33:00;6.67;;;2.53;;
8871;SDS011;4472;52.092;9.820;2023-04-25T15:35:48;5.43;;;2.03;;
8871;SDS011;4472;52.092;9.820;2023-04-25T15:38:36;6.80;;;1.90;;
8871;SDS011;4472;52.092;9.820;2023-04-25T15:41:23;8.07;;;2.37;;
8871;SDS011;4472;52.092;9.820;2023-04-25T15:44:10;6.20;;;2.30;;
8871;SDS011;4472;52.092;9.820;2023-04-25T15:46:58;4.07;;;1.77;;
8871;SDS011;4472;52.092;9.820;2023-04-25T15:49:45;4.10;;;1.73;;
8871;SDS011;4472;52.092;9.820;2023-04-25T15:52:32;4.77;;;1.80;;
8871;SDS011;4472;52.092;9.820;2023-04-25T15:55:21;6.60;;;2.17;;
8871;SDS011;4472;52.092;9.820;2023-04-25T15:58:11;5.80;;;2.13;;
8871;SDS011;4472;52.092;9.820;2023-04-25T16:00:58;4.17;;;2.20;;
8871;SDS011;4472;52.092;9.820;2023-04-25T16:03:45;4.93;;;2.00;;
8871;SDS011;4472;52.092;9.820;2023-04-25T16:06:32;2.90;;;1.67;;
8871;SDS011;4472;52.092;9.820;2023-04-25T16:09:19;4.60;;;2.10;;
8871;SDS011;4472;52.092;9.820;2023-04-25T16:12:08;6.23;;;2.00;;
8871;SDS011;4472;52.092;9.820;2023-04-25T16:14:56;5.63;;;2.10;;
8871;SDS011;4472;52.092;9.820;2023-04-25T16:17:47;6.77;;;1.67;;
8871;SDS011;4472;52.092;9.820;2023-04-25T16:20:34;4.47;;;2.07;;
8871;SDS011;4472;52.092;9.820;2023-04-25T16:23:21;6.10;;;2.20;;
8871;SDS011;4472;52.092;9.820;2023-04-25T16:26:08;7.60;;;2.30;;
8871;SDS011;4472;52.092;9.820;2023-04-25T16:28:57;5.63;;;2.33;;
8871;SDS011;4472;52.092;9.820;2023-04-25T16:31:44;4.50;;;2.00;;
8871;SDS011;4472;52.092;9.820;2023-04-25T16:34:32;3.80;;;2.37;;
8871;SDS011;4472;52.092;9.820;2023-04-25T16:37:19;4.37;;;1.90;;
8871;SDS011;4472;52.092;9.820;2023-04-25T16:40:07;4.80;;;1.57;;
8871;SDS011;4472;52.092;9.820;2023-04-25T16:42:54;2.03;;;1.60;;
8871;SDS011;4472;52.092;9.820;2023-04-25T16:45:43;6.30;;;1.90;;
8871;SDS011;4472;52.092;9.820;2023-04-25T16:48:30;2.87;;;1.97;;
8871;SDS011;4472;52.092;9.820;2023-04-25T16:51:19;3.57;;;1.67;;
8871;SDS011;4472;52.092;9.820;2023-04-25T16:54:06;3.10;;;1.70;;
8871;SDS011;4472;52.092;9.820;2023-04-25T16:56:53;3.43;;;1.90;;
8871;SDS011;4472;52.092;9.820;2023-04-25T16:59:40;6.20;;;1.80;;
8871;SDS011;4472;52.092;9.820;2023-04-25T17:02:28;6.07;;;1.67;;
8871;SDS011;4472;52.092;9.820;2023-04-25T17:05:16;3.93;;;1.67;;
8871;SDS011;4472;52.092;9.820;2023-04-25T17:08:03;3.40;;;1.90;;
8871;SDS011;4472;52.092;9.820;2023-04-25T17:10:51;4.23;;;1.80;;
8871;SDS011;4472;52.092;9.820;2023-04-25T17:13:38;4.73;;;1.80;;
8871;SDS011;4472;52.092;9.820;2023-04-25T17:16:33;3.23;;;1.80;;
8871;SDS011;4472;52.092;9.820;2023-04-25T17:19:22;2.13;;;1.50;;
8871;SDS011;4472;52.092;9.820;2023-04-25T17:22:10;5.67;;;2.10;;